Time;durP1;ratioP1;P1;durP2;ratioP2;P2;SDS_P1;SDS_P2;PMS_P1;PMS_P2;Temp;Humidity;BMP_temperature;BMP_pressure;BME280_temperature;BME280_humidity;BME280_pressure;Samples;Min_cycle;Max_cycle;Signal;HPM_P1;HPM_P2
2023/04/25 00:02:27;;;;;;;7.63;3.47;;;8.40;99.90;;;;;;4984200;28;20253;-60
2023/04/25 00:04:57;;;;;;;3.40;3.20;;;8.40;99.90;;;;;;4975977;28;20207;-60
2023/04/25 00:07:26;;;;;;;2.90;2.70;;;8.40;99.90;;;;;;4976284;28;20206;-60
2023/04/25 00:09:53;;;;;;;2.70;2.60;;;8.40;99.90;;;;;;4976136;28;20644;-60
2023/04/25 00:12:23;;;;;;;2.53;2.33;;;8.30;99.90;;;;;;4983702;28;20219;-61
2023/04/25 00:14:51;;;;;;;2.80;2.60;;;8.40;99.90;;;;;;4980917;28;20238;-60
2023/04/25 00:17:21;;;;;;;3.23;3.03;;;8.30;99.90;;;;;;4987120;28;20221;-60
2023/04/25 00:19:49;;;;;;;2.33;2.23;;;8.40;99.90;;;;;;4995794;28;20233;-60
2023/04/25 00:22:17;;;;;;;3.20;2.90;;;8.40;99.90;;;;;;4995598;28;20205;-60
2023/04/25 00:24:45;;;;;;;5.37;2.47;;;8.40;99.90;;;;;;4984725;28;20299;-60
2023/04/25 00:27:12;;;;;;;3.10;2.93;;;8.40;99.90;;;;;;4986421;28;20265;-60
2023/04/25 00:29:39;;;;;;;2.53;2.37;;;8.40;99.90;;;;;;4982182;28;20221;-61
2023/04/25 00:32:06;;;;;;;3.37;3.07;;;8.40;99.90;;;;;;4975250;28;20297;-60
2023/04/25 00:34:33;;;;;;;2.40;2.20;;;8.40;99.90;;;;;;4975703;28;20210;-61
2023/04/25 00:37:02;;;;;;;3.03;2.93;;;8.50;99.90;;;;;;4981375;28;20216;-60
2023/04/25 00:39:29;;;;;;;2.93;2.77;;;8.50;99.90;;;;;;4983512;28;20227;-61
2023/04/25 00:41:58;;;;;;;2.40;2.30;;;8.60;99.90;;;;;;4979858;28;20204;-60
2023/04/25 00:44:26;;;;;;;2.83;2.20;;;8.60;99.90;;;;;;4986716;28;20257;-60
2023/04/25 00:46:54;;;;;;;3.10;2.90;;;8.50;99.90;;;;;;4995144;28;20197;-61
2023/04/25 00:49:21;;;;;;;2.53;2.43;;;8.60;99.90;;;;;;4988665;28;20645;-61
2023/04/25 00:51:49;;;;;;;2.23;1.93;;;8.60;99.90;;;;;;4978119;28;20206;-60
2023/04/25 00:54:17;;;;;;;3.33;2.30;;;8.60;99.90;;;;;;4981358;28;20255;-60
2023/04/25 00:56:45;;;;;;;2.70;2.50;;;8.60;99.90;;;;;;4986848;28;20638;-60
2023/04/25 00:59:14;;;;;;;3.87;3.13;;;8.50;99.90;;;;;;4994648;28;20242;-60
2023/04/25 01:01:42;;;;;;;2.97;2.77;;;8.50;99.90;;;;;;4984594;28;20276;-60
2023/04/25 01:04:09;;;;;;;2.87;2.67;;;8.60;99.90;;;;;;4985128;28;20212;-60
2023/04/25 01:06:36;;;;;;;2.93;2.57;;;8.60;99.90;;;;;;4981198;28;20204;-60
2023/04/25 01:09:04;;;;;;;2.97;2.87;;;8.60;99.90;;;;;;4982527;28;20784;-60
2023/04/25 01:11:31;;;;;;;3.47;3.27;;;8.50;99.90;;;;;;4986738;28;20212;-60
2023/04/25 01:13:58;;;;;;;2.90;2.73;;;8.50;99.90;;;;;;4985011;28;20213;-60
2023/04/25 01:16:27;;;;;;;3.63;3.30;;;8.50;99.90;;;;;;4986085;28;20281;-60
2023/04/25 01:18:54;;;;;;;2.87;2.67;;;8.40;99.90;;;;;;4994237;28;20225;-61
2023/04/25 01:21:26;;;;;;;3.60;2.70;;;8.40;99.90;;;;;;4988606;28;20206;-60
2023/04/25 01:23:53;;;;;;;3.07;2.70;;;8.30;99.90;;;;;;4977077;28;20214;-60
2023/04/25 01:26:22;;;;;;;3.40;3.17;;;8.30;99.90;;;;;;4982904;28;20197;-60
2023/04/25 01:28:50;;;;;;;4.20;3.30;;;8.30;99.90;;;;;;4973969;28;20322;-60
2023/04/25 01:31:17;;;;;;;2.73;2.60;;;8.30;99.90;;;;;;4984007;28;20206;-60
2023/04/25 01:33:45;;;;;;;2.47;2.30;;;8.30;99.90;;;;;;4994039;28;20256;-61
2023/04/25 01:36:12;;;;;;;2.40;2.30;;;8.40;99.90;;;;;;4973398;28;20639;-60
2023/04/25 01:38:41;;;;;;;2.50;2.40;;;8.40;99.90;;;;;;4974591;28;20226;-61
2023/04/25 01:41:08;;;;;;;2.63;2.30;;;8.40;99.90;;;;;;4972718;28;20553;-60
2023/04/25 01:43:35;;;;;;;3.07;2.93;;;8.30;99.90;;;;;;4978129;28;20206;-60
2023/04/25 01:46:02;;;;;;;2.70;2.60;;;8.30;99.90;;;;;;4985738;28;20746;-60
2023/04/25 01:48:29;;;;;;;4.30;3.87;;;8.40;99.90;;;;;;4978618;28;20230;-60
2023/04/25 01:50:56;;;;;;;3.37;3.17;;;8.40;99.90;;;;;;4981421;28;20200;-59
2023/04/25 01:53:23;;;;;;;2.90;2.80;;;8.30;99.90;;;;;;4993685;28;20257;-60
2023/04/25 01:55:52;;;;;;;2.93;2.83;;;8.30;99.90;;;;;;4993935;28;20204;-60
2023/04/25 01:58:19;;;;;;;3.60;2.67;;;8.30;99.90;;;;;;4973889;28;20316;-61
2023/04/25 02:00:47;;;;;;;2.87;2.33;;;8.30;99.90;;;;;;4981252;28;20203;-60
2023/04/25 02:03:14;;;;;;;3.17;2.87;;;8.30;99.90;;;;;;4980256;28;20210;-60
2023/04/25 02:05:41;;;;;;;2.73;2.27;;;8.40;99.90;;;;;;4987040;28;20205;-60
2023/04/25 02:08:10;;;;;;;2.93;2.33;;;8.40;99.90;;;;;;4993525;28;20276;-60
2023/04/25 02:10:37;;;;;;;2.53;2.33;;;8.40;99.90;;;;;;4993516;28;20220;-60
2023/04/25 02:13:06;;;;;;;2.77;2.67;;;8.40;99.90;;;;;;4983387;28;20205;-61
2023/04/25 02:15:33;;;;;;;2.63;2.53;;;8.40;99.90;;;;;;4983082;28;20293;-60
2023/04/25 02:18:00;;;;;;;3.10;2.90;;;8.40;99.90;;;;;;4985305;28;20211;-61
2023/04/25 02:20:31;;;;;;;2.93;2.73;;;8.30;99.90;;;;;;4993234;28;20718;-60
2023/04/25 02:22:58;;;;;;;5.03;4.03;;;8.30;99.90;;;;;;4993102;28;20214;-60
2023/04/25 02:25:25;;;;;;;4.13;3.67;;;8.30;99.90;;;;;;4984274;28;20206;-61
2023/04/25 02:27:52;;;;;;;3.13;2.93;;;8.30;99.90;;;;;;4985007;28;20732;-60
2023/04/25 02:30:21;;;;;;;2.40;2.17;;;8.30;99.90;;;;;;4981964;28;20377;-60
2023/04/25 02:32:48;;;;;;;2.53;2.40;;;8.30;99.90;;;;;;4993030;28;20210;-61
2023/04/25 02:35:15;;;;;;;2.53;2.33;;;8.40;99.90;;;;;;4982138;28;20222;-60
2023/04/25 02:37:43;;;;;;;2.53;2.43;;;8.30;99.90;;;;;;4986123;28;20577;-61
2023/04/25 02:40:11;;;;;;;3.03;2.87;;;8.20;99.90;;;;;;4981637;28;20280;-60
2023/04/25 02:42:38;;;;;;;3.57;3.30;;;8.20;99.90;;;;;;4977044;28;20583;-61
2023/04/25 02:45:06;;;;;;;2.70;2.60;;;8.20;99.90;;;;;;4984712;28;20609;-60
2023/04/25 02:47:34;;;;;;;3.43;3.13;;;8.20;99.90;;;;;;4987155;28;20215;-60
2023/04/25 02:50:01;;;;;;;3.40;3.27;;;8.20;99.90;;;;;;4971525;28;20665;-60
2023/04/25 02:52:28;;;;;;;4.63;2.90;;;8.20;99.90;;;;;;4979673;28;20224;-62
2023/04/25 02:54:55;;;;;;;3.43;3.13;;;8.20;99.90;;;;;;4981416;28;20202;-58
2023/04/25 02:57:24;;;;;;;4.17;3.77;;;8.20;99.90;;;;;;4972249;28;20223;-60
2023/04/25 02:59:51;;;;;;;3.43;3.23;;;8.20;99.90;;;;;;4980919;28;20298;-60
2023/04/25 03:02:18;;;;;;;4.23;4.03;;;8.20;99.90;;;;;;4984976;28;20212;-60
2023/04/25 03:04:47;;;;;;;3.67;2.73;;;8.20;99.90;;;;;;4984972;28;20202;-59
2023/04/25 03:07:14;;;;;;;4.43;3.27;;;8.30;99.90;;;;;;4992818;28;20305;-61
2023/04/25 03:09:41;;;;;;;3.70;3.40;;;8.20;99.90;;;;;;4992727;28;20225;-61
2023/04/25 03:12:08;;;;;;;3.50;3.20;;;8.30;99.90;;;;;;4992299;28;20210;-60
2023/04/25 03:14:35;;;;;;;5.90;3.57;;;8.20;99.90;;;;;;4976593;28;20207;-60
2023/04/25 03:17:02;;;;;;;3.10;2.83;;;8.30;99.90;;;;;;4972953;28;20277;-60
2023/04/25 03:19:29;;;;;;;3.27;2.97;;;8.30;99.90;;;;;;4973170;28;20226;-61
2023/04/25 03:21:57;;;;;;;4.10;3.60;;;8.30;99.90;;;;;;4973245;28;20210;-60
2023/04/25 03:24:24;;;;;;;4.10;2.90;;;8.30;99.90;;;;;;4974460;28;20217;-59
2023/04/25 03:26:51;;;;;;;2.67;2.57;;;8.30;99.90;;;;;;4986047;28;20734;-60
2023/04/25 03:29:18;;;;;;;2.90;2.70;;;8.30;99.90;;;;;;4992239;28;20225;-60
2023/04/25 03:31:45;;;;;;;2.57;2.37;;;8.30;99.90;;;;;;4980101;28;20210;-61
2023/04/25 03:34:14;;;;;;;2.73;2.53;;;8.20;99.90;;;;;;4984240;28;20207;-60
2023/04/25 03:36:41;;;;;;;2.97;2.77;;;8.20;99.90;;;;;;4988587;28;20210;-61
2023/04/25 03:39:09;;;;;;;2.93;1.90;;;8.20;99.90;;;;;;4976763;28;20278;-60
2023/04/25 03:41:36;;;;;;;2.60;2.50;;;8.30;99.90;;;;;;4976634;28;20290;-60
2023/04/25 03:44:03;;;;;;;1.67;1.57;;;8.20;99.90;;;;;;4976540;28;20754;-60
2023/04/25 03:46:30;;;;;;;3.13;2.17;;;8.20;99.90;;;;;;4982831;28;20501;-60
2023/04/25 03:48:59;;;;;;;1.93;1.83;;;8.20;99.90;;;;;;4991684;28;20723;-60
2023/04/25 03:51:26;;;;;;;3.27;2.70;;;8.20;99.90;;;;;;4981216;28;20198;-60
2023/04/25 03:53:53;;;;;;;4.37;3.00;;;8.20;99.90;;;;;;4975230;28;20209;-63
2023/04/25 03:56:21;;;;;;;7.60;3.63;;;8.20;99.90;;;;;;5009976;23;20243;-56
2023/04/25 03:58:48;;;;;;;3.47;3.27;;;8.30;99.90;;;;;;4961516;28;20295;-56
2023/04/25 04:01:15;;;;;;;3.53;3.33;;;8.30;99.90;;;;;;4970939;28;20265;-56
2023/04/25 04:03:43;;;;;;;3.73;3.40;;;8.30;99.90;;;;;;4974015;28;20202;-56
2023/04/25 04:06:10;;;;;;;5.07;3.60;;;8.30;99.90;;;;;;4975146;28;20206;-56
2023/04/25 04:08:37;;;;;;;5.87;3.37;;;8.30;99.90;;;;;;4975056;28;20558;-56
2023/04/25 04:11:04;;;;;;;4.30;3.87;;;8.20;99.90;;;;;;4975205;28;20222;-56
2023/04/25 04:13:33;;;;;;;3.70;3.13;;;8.20;99.90;;;;;;4970277;28;20278;-57
2023/04/25 04:16:00;;;;;;;3.47;3.23;;;8.20;99.90;;;;;;4962321;28;20626;-56
2023/04/25 04:18:27;;;;;;;2.67;2.57;;;8.10;99.90;;;;;;4974545;28;20285;-57
2023/04/25 04:20:54;;;;;;;4.10;3.80;;;8.20;99.90;;;;;;4974897;28;20203;-57
2023/04/25 04:23:22;;;;;;;6.13;3.83;;;8.10;99.90;;;;;;4974542;28;20210;-57
2023/04/25 04:25:49;;;;;;;3.53;3.23;;;8.10;99.90;;;;;;4974783;28;20206;-57
2023/04/25 04:28:17;;;;;;;3.50;3.20;;;8.10;99.90;;;;;;4974592;28;20226;-57
2023/04/25 04:30:46;;;;;;;3.90;3.60;;;8.10;99.90;;;;;;4974376;28;20234;-57
2023/04/25 04:33:14;;;;;;;4.30;4.10;;;8.10;99.90;;;;;;4972178;28;20222;-56
2023/04/25 04:35:42;;;;;;;4.03;3.57;;;8.10;99.90;;;;;;4961344;28;20207;-56
2023/04/25 04:38:10;;;;;;;3.77;2.87;;;8.10;99.90;;;;;;4959149;28;20664;-56
2023/04/25 04:40:37;;;;;;;4.37;3.97;;;8.10;99.90;;;;;;4974766;28;20313;-56
2023/04/25 04:43:05;;;;;;;4.00;3.70;;;8.10;99.90;;;;;;4972637;28;20283;-56
2023/04/25 04:45:33;;;;;;;4.00;3.60;;;8.10;99.90;;;;;;4967011;28;20205;-56
2023/04/25 04:48:01;;;;;;;4.07;3.87;;;8.20;99.90;;;;;;4974257;28;20719;-56
2023/04/25 04:50:29;;;;;;;4.17;3.87;;;8.20;99.90;;;;;;4974406;28;20291;-56
2023/04/25 04:52:56;;;;;;;4.20;3.90;;;8.20;99.90;;;;;;4966627;28;20206;-56
2023/04/25 04:55:23;;;;;;;4.73;4.20;;;8.20;99.90;;;;;;4971230;28;20293;-56
2023/04/25 04:57:50;;;;;;;4.43;4.03;;;8.30;99.90;;;;;;4972288;28;20285;-56
2023/04/25 05:00:17;;;;;;;5.17;4.13;;;8.30;99.90;;;;;;4973782;28;20672;-56
2023/04/25 05:02:44;;;;;;;4.20;3.80;;;8.30;99.90;;;;;;4965053;28;20688;-56
2023/04/25 05:05:13;;;;;;;4.53;3.27;;;8.30;99.90;;;;;;4969071;28;20293;-56
2023/04/25 05:07:40;;;;;;;3.40;2.97;;;8.30;99.90;;;;;;4974373;28;20289;-56
2023/04/25 05:10:08;;;;;;;3.37;3.17;;;8.30;99.90;;;;;;4973696;28;20206;-56
2023/04/25 05:12:35;;;;;;;3.80;3.30;;;8.20;99.90;;;;;;4972616;28;20204;-56
2023/04/25 05:15:02;;;;;;;2.90;2.67;;;8.20;99.90;;;;;;4958179;28;20201;-57
2023/04/25 05:17:29;;;;;;;5.87;2.50;;;8.20;99.90;;;;;;4967003;28;20635;-57
2023/04/25 05:19:56;;;;;;;4.50;3.40;;;8.20;99.90;;;;;;4974027;28;20270;-57
2023/04/25 05:22:27;;;;;;;2.57;2.47;;;8.30;99.90;;;;;;4973596;28;20721;-57
2023/04/25 05:24:54;;;;;;;2.97;2.87;;;8.30;99.90;;;;;;4972813;28;20714;-57
2023/04/25 05:27:25;;;;;;;3.33;2.40;;;8.40;99.90;;;;;;4960130;28;20225;-57
2023/04/25 05:29:53;;;;;;;2.70;2.50;;;8.40;99.90;;;;;;4960662;28;20207;-57
2023/04/25 05:32:20;;;;;;;3.00;2.67;;;8.50;99.90;;;;;;4973390;28;20203;-57
2023/04/25 05:34:47;;;;;;;2.67;2.27;;;8.50;99.90;;;;;;4973233;28;20214;-57
2023/04/25 05:37:14;;;;;;;2.63;2.40;;;8.50;99.90;;;;;;4973472;28;20281;-56
2023/04/25 05:39:42;;;;;;;3.80;3.50;;;8.50;99.90;;;;;;4973265;28;20617;-57
2023/04/25 05:42:10;;;;;;;3.97;3.47;;;8.70;99.90;;;;;;4973041;28;20202;-57
2023/04/25 05:44:37;;;;;;;2.40;2.30;;;8.70;99.90;;;;;;4971435;28;20212;-57
2023/04/25 05:47:04;;;;;;;3.80;3.60;;;8.80;99.90;;;;;;4964743;28;20608;-56
2023/04/25 05:49:31;;;;;;;3.00;2.70;;;8.90;99.90;;;;;;4969324;28;20894;-57
2023/04/25 05:51:58;;;;;;;2.47;2.37;;;9.10;99.90;;;;;;4964764;28;20213;-56
2023/04/25 05:54:25;;;;;;;4.30;3.73;;;9.20;99.90;;;;;;4971181;28;20202;-57
2023/04/25 05:56:54;;;;;;;3.83;2.80;;;9.40;99.90;;;;;;4971476;28;20797;-58
2023/04/25 05:59:28;;;;;;;4.73;2.60;;;9.40;99.90;;;;;;4968727;28;20288;-57
2023/04/25 06:01:55;;;;;;;2.87;2.70;;;9.50;99.90;;;;;;4963515;28;20668;-57
2023/04/25 06:04:22;;;;;;;1.87;1.80;;;10.20;99.90;;;;;;4970889;28;20210;-57
2023/04/25 06:06:49;;;;;;;1.60;1.50;;;10.50;99.90;;;;;;4972412;28;20255;-57
2023/04/25 06:09:16;;;;;;;3.73;1.90;;;10.70;99.90;;;;;;4970015;28;20682;-57
2023/04/25 06:11:43;;;;;;;4.63;2.03;;;10.90;99.90;;;;;;4955833;28;20625;-57
2023/04/25 06:14:12;;;;;;;5.80;1.93;;;11.40;99.90;;;;;;4967419;28;20200;-57
2023/04/25 06:16:39;;;;;;;6.20;2.60;;;12.80;99.90;;;;;;4971977;28;20279;-57
2023/04/25 06:19:05;;;;;;;2.63;2.07;;;13.70;99.90;;;;;;4969177;28;20258;-58
2023/04/25 06:21:32;;;;;;;4.47;1.60;;;14.30;99.90;;;;;;4967363;28;20207;-57
2023/04/25 06:23:59;;;;;;;2.80;1.90;;;15.00;99.90;;;;;;4963402;28;20204;-58
2023/04/25 06:26:26;;;;;;;1.87;1.77;;;15.70;99.90;;;;;;4960753;28;20298;-57
2023/04/25 06:28:53;;;;;;;1.80;1.70;;;15.70;99.90;;;;;;4960626;28;20208;-57
2023/04/25 06:31:21;;;;;;;4.03;1.90;;;15.60;99.90;;;;;;4972299;28;20200;-57
2023/04/25 06:33:49;;;;;;;5.10;1.50;;;15.50;99.90;;;;;;4971842;28;20200;-57
2023/04/25 06:36:16;;;;;;;2.50;1.30;;;15.70;99.90;;;;;;4970808;28;20270;-57
2023/04/25 06:38:43;;;;;;;3.90;1.93;;;15.40;99.90;;;;;;4970448;28;20213;-57
2023/04/25 06:41:10;;;;;;;3.07;1.90;;;15.70;99.90;;;;;;4962815;28;20258;-57
2023/04/25 06:43:36;;;;;;;2.37;2.10;;;15.20;99.90;;;;;;4963395;28;20625;-57
2023/04/25 06:46:03;;;;;;;6.13;2.03;;;14.80;99.90;;;;;;4967849;28;20278;-57
2023/04/25 06:48:32;;;;;;;3.40;1.80;;;14.40;99.90;;;;;;4972149;28;20262;-57
2023/04/25 06:50:59;;;;;;;2.17;1.87;;;13.90;99.90;;;;;;4969292;28;20201;-57
2023/04/25 06:53:26;;;;;;;1.93;1.53;;;13.30;99.90;;;;;;4971684;28;20197;-58
2023/04/25 06:55:52;;;;;;;5.63;1.77;;;13.10;99.90;;;;;;4972057;28;20212;-57
2023/04/25 06:58:19;;;;;;;2.47;1.90;;;12.70;99.90;;;;;;4971801;28;20230;-57
2023/04/25 07:00:46;;;;;;;0.97;0.97;;;13.20;99.90;;;;;;4965971;28;20205;-57
2023/04/25 07:03:13;;;;;;;1.90;0.80;;;13.70;99.90;;;;;;4959027;28;20751;-57
2023/04/25 07:05:42;;;;;;;2.93;1.40;;;14.00;99.90;;;;;;4966587;28;20205;-57
2023/04/25 07:08:08;;;;;;;2.47;1.27;;;15.20;99.90;;;;;;4971454;28;20371;-58
2023/04/25 07:10:35;;;;;;;1.70;1.43;;;16.40;99.90;;;;;;4972023;28;20204;-58
2023/04/25 07:13:02;;;;;;;1.97;1.70;;;17.00;99.90;;;;;;4971404;28;20208;-58
2023/04/25 07:15:29;;;;;;;1.00;1.00;;;17.10;99.90;;;;;;4971908;28;20204;-58
2023/04/25 07:17:56;;;;;;;2.10;1.53;;;16.50;99.90;;;;;;4963494;28;20769;-58
2023/04/25 07:20:23;;;;;;;1.50;1.03;;;15.90;99.90;;;;;;4959388;28;20259;-57
2023/04/25 07:22:51;;;;;;;1.33;0.80;;;15.10;99.90;;;;;;4970033;28;20263;-57
2023/04/25 07:25:18;;;;;;;1.03;0.87;;;14.60;99.90;;;;;;4971589;28;20196;-57
2023/04/25 07:27:45;;;;;;;1.80;0.80;;;14.10;99.90;;;;;;4971545;28;20283;-57
2023/04/25 07:30:13;;;;;;;0.60;0.60;;;13.90;99.90;;;;;;4968411;28;20212;-58
2023/04/25 07:32:40;;;;;;;2.20;0.90;;;13.80;99.90;;;;;;4955657;28;20622;-57
2023/04/25 07:35:08;;;;;;;1.13;1.13;;;13.60;99.90;;;;;;4954720;28;20711;-58
2023/04/25 07:37:35;;;;;;;0.90;0.90;;;13.20;99.90;;;;;;4952342;28;20284;-57
2023/04/25 07:40:05;;;;;;;3.83;1.13;;;13.00;99.90;;;;;;4959048;28;20224;-57
2023/04/25 07:42:32;;;;;;;0.90;0.90;;;12.70;99.90;;;;;;4967525;28;20256;-57
2023/04/25 07:44:59;;;;;;;2.87;1.13;;;12.40;99.90;;;;;;4952566;28;20207;-57
2023/04/25 07:47:28;;;;;;;1.97;1.53;;;12.10;99.90;;;;;;4952422;28;20722;-57
2023/04/25 07:49:56;;;;;;;3.10;1.43;;;11.90;99.90;;;;;;4953615;28;20255;-57
2023/04/25 07:52:25;;;;;;;1.77;0.83;;;11.80;99.90;;;;;;4958816;28;20502;-57
2023/04/25 07:54:53;;;;;;;3.67;1.30;;;11.60;99.90;;;;;;4962958;28;20207;-57
2023/04/25 07:57:21;;;;;;;2.60;1.13;;;11.30;99.90;;;;;;4963979;28;20248;-57
2023/04/25 07:59:48;;;;;;;3.70;1.00;;;11.10;99.90;;;;;;4960303;28;20305;-57
2023/04/25 08:02:15;;;;;;;1.40;1.00;;;11.00;99.90;;;;;;4960137;28;20314;-57
2023/04/25 08:04:42;;;;;;;1.57;0.73;;;10.80;99.90;;;;;;4971963;28;20199;-57
2023/04/25 08:07:09;;;;;;;4.13;1.10;;;10.70;99.90;;;;;;4966488;28;20279;-57
2023/04/25 08:09:36;;;;;;;1.60;1.50;;;10.30;99.90;;;;;;4964472;28;20195;-57
2023/04/25 08:12:03;;;;;;;0.83;0.83;;;9.90;99.90;;;;;;4968548;28;20204;-57
2023/04/25 08:14:35;;;;;;;0.93;0.90;;;9.60;99.90;;;;;;4965303;28;20213;-57
2023/04/25 08:17:03;;;;;;;1.57;0.93;;;9.50;99.90;;;;;;4963115;28;20234;-57
2023/04/25 08:19:30;;;;;;;2.33;0.90;;;9.30;99.90;;;;;;4975013;28;20272;-57
2023/04/25 08:21:57;;;;;;;1.43;1.20;;;9.30;99.90;;;;;;4966320;28;20202;-57
2023/04/25 08:24:24;;;;;;;1.20;1.20;;;9.30;99.90;;;;;;4974530;28;20635;-57
2023/04/25 08:26:51;;;;;;;1.43;0.80;;;9.40;99.90;;;;;;4974606;28;20654;-57
2023/04/25 08:29:18;;;;;;;2.27;0.93;;;9.30;99.90;;;;;;4974967;28;20214;-57
2023/04/25 08:31:48;;;;;;;1.27;0.90;;;9.50;99.90;;;;;;4965260;28;20202;-57
2023/04/25 08:34:15;;;;;;;2.90;1.13;;;9.50;99.90;;;;;;4974325;28;20293;-57
2023/04/25 08:36:42;;;;;;;1.23;0.93;;;9.40;99.90;;;;;;4974502;28;20275;-57
2023/04/25 08:39:08;;;;;;;3.07;1.60;;;9.50;99.90;;;;;;4974689;28;20233;-57
2023/04/25 08:41:37;;;;;;;3.80;1.13;;;9.40;99.90;;;;;;4963189;28;20641;-57
2023/04/25 08:44:06;;;;;;;2.20;0.70;;;9.40;99.90;;;;;;4971452;28;20640;-56
2023/04/25 08:46:33;;;;;;;1.83;1.07;;;9.30;99.90;;;;;;4974847;28;20289;-56
2023/04/25 08:49:03;;;;;;;0.70;0.70;;;9.30;99.90;;;;;;4974832;28;20238;-56
2023/04/25 08:51:33;;;;;;;2.30;1.17;;;9.20;99.90;;;;;;4970356;28;20299;-56
2023/04/25 08:54:09;;;;;;;6.93;1.30;;;9.30;99.90;;;;;;4968365;28;20195;-56
2023/04/25 08:56:36;;;;;;;1.47;1.03;;;9.20;99.90;;;;;;4966213;28;20240;-56
2023/04/25 08:59:03;;;;;;;1.43;1.20;;;9.00;99.90;;;;;;4974003;28;20234;-56
2023/04/25 09:01:30;;;;;;;1.93;1.03;;;9.00;99.90;;;;;;4969977;28;20262;-56
2023/04/25 09:03:58;;;;;;;2.97;0.60;;;9.00;99.90;;;;;;4962148;28;20256;-56
2023/04/25 09:06:28;;;;;;;0.60;0.60;;;9.00;99.90;;;;;;4974391;28;20282;-56
2023/04/25 09:08:55;;;;;;;1.13;0.50;;;8.90;99.90;;;;;;4974264;28;20256;-56
2023/04/25 09:11:22;;;;;;;1.60;1.47;;;8.80;99.90;;;;;;4970874;28;20214;-56
2023/04/25 09:13:49;;;;;;;1.23;0.53;;;8.90;99.90;;;;;;4968848;28;20196;-56
2023/04/25 09:16:18;;;;;;;1.90;0.83;;;8.90;99.90;;;;;;4964579;28;20209;-56
2023/04/25 09:18:47;;;;;;;1.63;0.90;;;9.00;99.90;;;;;;4974176;28;20231;-56
2023/04/25 09:21:15;;;;;;;0.50;0.50;;;8.90;99.90;;;;;;4971833;28;20211;-56
2023/04/25 09:23:46;;;;;;;0.93;0.90;;;8.90;99.90;;;;;;4960015;28;20199;-56
2023/04/25 09:26:16;;;;;;;1.20;0.50;;;9.00;99.90;;;;;;4971473;28;20203;-56
2023/04/25 09:28:43;;;;;;;2.57;0.90;;;9.00;99.90;;;;;;4973842;28;20696;-56
2023/04/25 09:31:11;;;;;;;0.67;0.67;;;9.10;99.90;;;;;;4971534;28;20222;-56
2023/04/25 09:33:38;;;;;;;1.93;0.50;;;9.40;99.90;;;;;;4961009;28;20222;-56
2023/04/25 09:36:07;;;;;;;0.70;0.43;;;9.60;99.90;;;;;;4973539;28;20210;-56
2023/04/25 09:38:41;;;;;;;0.40;0.40;;;9.50;99.90;;;;;;4973439;28;20258;-56
2023/04/25 09:41:10;;;;;;;0.63;0.37;;;9.40;99.90;;;;;;4971809;28;20206;-58
2023/04/25 09:43:37;;;;;;;0.30;0.30;;;9.20;99.90;;;;;;4958178;28;20258;-56
2023/04/25 09:46:09;;;;;;;0.53;0.53;;;9.30;99.90;;;;;;4973500;28;20418;-56
2023/04/25 09:48:36;;;;;;;0.93;0.63;;;9.60;99.90;;;;;;4973748;28;20210;-56
2023/04/25 09:51:07;;;;;;;2.40;0.97;;;9.80;99.90;;;;;;4966311;28;20211;-56
2023/04/25 09:53:35;;;;;;;1.20;0.80;;;10.30;99.90;;;;;;4965151;28;20845;-56
2023/04/25 09:56:06;;;;;;;1.07;1.03;;;10.60;99.90;;;;;;4976506;28;20220;-56
2023/04/25 09:58:35;;;;;;;0.87;0.87;;;10.80;99.90;;;;;;4973499;28;20249;-55
2023/04/25 10:01:03;;;;;;;0.70;0.70;;;11.00;99.90;;;;;;4972295;28;20223;-56
2023/04/25 10:03:31;;;;;;;0.80;0.70;;;11.10;99.90;;;;;;4965025;28;20198;-56
2023/04/25 10:06:00;;;;;;;2.00;0.60;;;11.30;99.90;;;;;;4972856;28;20213;-56
2023/04/25 10:08:32;;;;;;;1.97;1.03;;;11.40;99.90;;;;;;4989714;23;20249;-54
2023/04/25 10:11:02;;;;;;;1.07;0.90;;;11.30;99.90;;;;;;4988390;28;20285;-54
2023/04/25 10:13:30;;;;;;;2.17;1.20;;;11.80;99.90;;;;;;4990379;28;20204;-54
2023/04/25 10:16:00;;;;;;;1.23;0.70;;;12.20;99.90;;;;;;4984998;28;20198;-54
2023/04/25 10:18:28;;;;;;;1.90;0.80;;;12.30;99.90;;;;;;4993104;28;20245;-54
2023/04/25 10:20:57;;;;;;;1.50;0.70;;;12.40;99.90;;;;;;4981915;28;20234;-54
2023/04/25 10:23:25;;;;;;;1.30;0.67;;;12.50;99.90;;;;;;4980500;28;20214;-54
2023/04/25 10:25:53;;;;;;;1.33;0.60;;;12.50;99.90;;;;;;4984643;28;20215;-54
2023/04/25 10:28:20;;;;;;;1.90;1.03;;;12.40;99.90;;;;;;4992950;28;20254;-54
2023/04/25 10:31:02;;;;;;;2.40;0.70;;;12.20;99.90;;;;;;4987704;28;20250;-54
2023/04/25 10:33:36;;;;;;;0.93;0.70;;;12.10;99.90;;;;;;4973091;28;20202;-54
2023/04/25 10:36:11;;;;;;;5.10;1.13;;;12.20;99.90;;;;;;4972726;28;20207;-54
2023/04/25 10:38:38;;;;;;;0.97;0.97;;;11.90;99.90;;;;;;4973446;28;20386;-54
2023/04/25 10:41:08;;;;;;;0.87;0.73;;;11.70;99.90;;;;;;4972079;28;20226;-54
2023/04/25 10:43:40;;;;;;;0.63;0.63;;;11.20;99.90;;;;;;4970779;28;20690;-54
2023/04/25 10:46:23;;;;;;;0.50;0.50;;;11.10;99.90;;;;;;4962610;28;20266;-54
2023/04/25 10:48:52;;;;;;;0.87;0.70;;;11.00;99.90;;;;;;4983032;28;20707;-54
2023/04/25 10:51:21;;;;;;;0.57;0.57;;;11.00;99.90;;;;;;4975128;28;20211;-54
2023/04/25 10:53:58;;;;;;;6.67;6.10;;;11.00;99.90;;;;;;4979282;28;20206;-54
2023/04/25 10:56:27;;;;;;;5.90;5.50;;;11.00;99.90;;;;;;4965619;28;20271;-54
2023/04/25 10:59:06;;;;;;;16.20;14.57;;;11.10;99.90;;;;;;4980140;28;20647;-54
2023/04/25 11:01:39;;;;;;;5.30;4.83;;;11.20;99.90;;;;;;4984349;28;20209;-54
2023/04/25 11:04:06;;;;;;;2.63;2.10;;;11.30;99.90;;;;;;4974835;28;20203;-54
2023/04/25 11:06:47;;;;;;;2.77;2.33;;;11.50;99.90;;;;;;4979537;28;20249;-54
2023/04/25 11:09:14;;;;;;;2.13;1.30;;;11.70;99.90;;;;;;4980307;28;20286;-54
2023/04/25 11:11:41;;;;;;;0.30;0.30;;;12.00;99.90;;;;;;4986069;28;20213;-55
2023/04/25 11:14:08;;;;;;;2.63;0.73;;;12.10;99.90;;;;;;4975137;28;20203;-54
2023/04/25 11:16:37;;;;;;;0.70;0.60;;;12.40;99.90;;;;;;4984169;28;20623;-54
2023/04/25 11:19:04;;;;;;;1.10;1.00;;;12.50;99.90;;;;;;4992014;28;20768;-54
2023/04/25 11:21:32;;;;;;;1.13;0.60;;;12.50;99.90;;;;;;4985852;28;20209;-54
2023/04/25 11:24:01;;;;;;;0.40;0.40;;;12.60;99.90;;;;;;4983705;28;20200;-54
2023/04/25 11:26:28;;;;;;;0.57;0.50;;;12.50;99.90;;;;;;4984998;28;20203;-54
2023/04/25 11:29:00;;;;;;;0.97;0.43;;;12.30;99.90;;;;;;4979705;28;20713;-54
2023/04/25 11:31:27;;;;;;;0.40;0.40;;;12.20;99.90;;;;;;4985899;28;20282;-54
2023/04/25 11:33:58;;;;;;;0.60;0.30;;;12.10;99.90;;;;;;4983658;28;20199;-54
2023/04/25 11:36:25;;;;;;;1.90;0.60;;;12.10;99.90;;;;;;4992354;28;20264;-54
2023/04/25 11:38:52;;;;;;;1.43;0.60;;;12.10;99.90;;;;;;4983820;28;20223;-54
2023/04/25 11:41:20;;;;;;;0.70;0.40;;;12.10;99.90;;;;;;4979565;28;20224;-54
2023/04/25 11:43:47;;;;;;;1.20;0.40;;;12.00;99.90;;;;;;4977675;28;20260;-54
2023/04/25 11:46:14;;;;;;;1.40;1.10;;;11.80;99.90;;;;;;4970065;28;20291;-54
2023/04/25 11:48:42;;;;;;;2.73;1.20;;;11.60;99.90;;;;;;4973570;28;20582;-54
2023/04/25 11:51:10;;;;;;;0.47;0.47;;;11.40;99.90;;;;;;4971381;28;20196;-54
2023/04/25 11:53:37;;;;;;;0.23;0.23;;;11.10;99.90;;;;;;4995399;28;20242;-54
2023/04/25 11:56:10;;;;;;;0.30;0.20;;;11.20;99.90;;;;;;4982525;28;20210;-54
2023/04/25 11:58:55;;;;;;;0.10;0.10;;;11.20;99.90;;;;;;4975412;28;20648;-54
2023/04/25 12:01:27;;;;;;;3.20;0.20;;;11.40;99.90;;;;;;4977205;28;20266;-54
2023/04/25 12:03:54;;;;;;;0.20;0.10;;;11.60;99.90;;;;;;4979563;28;20284;-54
2023/04/25 12:06:27;;;;;;;0.10;0.10;;;11.80;99.90;;;;;;4976227;28;20218;-54
2023/04/25 12:09:01;;;;;;;0.10;0.10;;;12.00;99.90;;;;;;4975077;28;20228;-55
2023/04/25 12:11:28;;;;;;;1.90;0.10;;;11.90;99.90;;;;;;4987099;28;20570;-54
2023/04/25 12:13:55;;;;;;;0.20;0.20;;;11.70;99.90;;;;;;4995359;28;20210;-55
2023/04/25 12:16:22;;;;;;;0.10;0.10;;;11.50;99.90;;;;;;4995502;28;20203;-55
2023/04/25 12:18:49;;;;;;;0.10;0.10;;;11.30;99.90;;;;;;4975892;28;20246;-54
2023/04/25 12:21:16;;;;;;;0.10;0.10;;;11.10;99.90;;;;;;4985335;28;20289;-54
2023/04/25 12:23:44;;;;;;;0.10;0.10;;;11.10;99.90;;;;;;4978973;28;20563;-54
2023/04/25 12:26:11;;;;;;;0.20;0.20;;;11.10;99.90;;;;;;4975706;28;20680;-54
2023/04/25 12:28:38;;;;;;;0.30;0.20;;;11.20;99.90;;;;;;4974636;28;20238;-55
2023/04/25 12:31:06;;;;;;;0.63;0.33;;;11.60;99.90;;;;;;4985446;28;20199;-55
2023/04/25 12:33:35;;;;;;;0.60;0.60;;;11.90;99.90;;;;;;4985434;28;20223;-55
2023/04/25 12:36:08;;;;;;;2.60;2.03;;;12.10;99.90;;;;;;4986874;28;20192;-55
2023/04/25 12:38:38;;;;;;;0.43;0.10;;;12.30;99.90;;;;;;4987032;28;20222;-55
2023/04/25 12:41:06;;;;;;;0.63;0.37;;;12.30;99.90;;;;;;4972073;28;20700;-55
2023/04/25 12:43:33;;;;;;;0.30;0.30;;;12.30;99.90;;;;;;4986865;28;20202;-55
2023/04/25 12:46:00;;;;;;;0.30;0.30;;;12.30;99.90;;;;;;4986790;28;20198;-55
2023/04/25 12:48:27;;;;;;;0.20;0.20;;;12.00;99.90;;;;;;4994765;28;20215;-55
2023/04/25 12:50:54;;;;;;;0.50;0.23;;;11.80;99.90;;;;;;4982911;28;20223;-54
2023/04/25 12:53:23;;;;;;;0.10;0.10;;;11.30;99.90;;;;;;4985274;28;20232;-54
2023/04/25 12:55:51;;;;;;;0.17;0.10;;;10.60;99.90;;;;;;4986442;28;20198;-54
2023/04/25 12:58:20;;;;;;;0.67;0.13;;;9.90;99.90;;;;;;4994504;28;20272;-54